Ana Sayfa
METAR-TAF:

METAR-TAF

Havaalanları :

Sault Ste. Marie Municipal Airport (Sanderson Field)

Sault Ste. Marie, Michigan, Amerika Birleşik Devletleri

Enlem: 46-28-46N, Boylam: 084-21-26W, yükseklik: 210 m

Güncel hava durumu gözlemi

Rapor saat 14:55 UTC de 36 dakika önce yapıldı.
Rüzgar batı/kuzeybatıdan 8 kt
Sıcaklık 20°C
Nem 68%
Basınç 1012 hPa
Görüş mesafesi: 16.1 km
6000 ft yükseklikte parçalı çok bulutlu

METAR: KANJ 211455Z AUTO 30008KT 10SM BKN060 20/14 A2989 RMK AO2 SLP117 T02000144 53008

Saat: 11:31 (15:31 UTC)


TAF: eksik

4.000'den fazla havaalanı için hava durumu gözlemleri ve tahminleri (METAR ve TAF raporları).

Kullanılabilir istasyonlar harita üzerinde sarı ve kırmızı noktalarla gösterilir.

İstasyonun adını görmek için fareyi noktanın üzerinde gezdirin.

Sonrasında hava gözlem ve tahminlerini görmek için tıklayın.

Haritayı değiştirmek için: yaklaştırmak için siyah artı işaretli yeşil düğmeye ve uzaklaştırmak için de eksi işaretli düğmeye hızla tıklayın; bitişik haritalar için yeşil okları kullanın.


METAR-TAF: